Pagrindinis puslapis
METAR-TAF:

METAR-TAF

Oro uostai :

Trondheimas, Norvegija

platuma: 63-28N, ilguma: 010-56E, Aukštis: 1 m

Dabartinis oras

Ataskaita buvo paskelbta 59 minutes, ne 08:20 UTC
Vėjas 4 kt iš Vakarų/Šiaurės Vakarų, svyruoja nuo Vakarų/Pietvakarių ir Šiaurės Vakarų
Temperatūra 13°C
Drėgmė 67%
Slėgis 999 hPa
Matomumas 10 km arba daugiau
Mažai debesys ne aukštis 3700 ft
Su prošvaistėmis ne aukštis 4500 ft

METAR: ENVA 310820Z 29004KT 250V320 9999 FEW037 BKN045 13/07 Q0999 NOSIG RMK WIND 670FT 30004KT

Laikas: 11:19 (09:19 UTC)

Prognozė

Prognozė galioja nuo 31 metu 06 UTC su 01 metu 06 UTC
Vėjas 5 kt nuo kintamojo kryptimis
Matomumas 10 km arba daugiau
Su prošvaistėmis ne aukštis 3000 ft
Laikinai
nuo 31 metu 09 UTC su 31 metu 17 UTC
Vėjas 10 kt iš Vakarų/Šiaurės Vakarų
Tikimybė 40%
nuo 31 metu 20 UTC su 31 metu 24 UTC
Su prošvaistėmis ne aukštis 1400 ft
lietus

TAF: ENVA 3106/0106 VRB05KT 9999 BKN030 TEMPO 3109/3117 29010KT PROB40 3120/3124 -RA BKN014

Orai ataskaitas ir orų prognozės (METAR, TAF).

turimą stotys yra geltonos ir raudonos taškus žemėlapyje.

Perkelti pele per norėdami pamatyti stoties vardą.

Tada spustelėkite, norėdami matyti oro stebėjimo ir prognozės.

Norėdami pakeisti žemėlapį: spustelėkite ant žalios mygtukų su juodo kryžiaus žemyn,; žalią mygtuką su brūkšneliu, jei norite nutolinti; arba žalių rodyklių gretimoms žemėlapius.


METAR-TAF: